sensor_id;sensor_type;location;lat;lon;timestamp;pressure;altitude;pressure_sealevel;temperature
6454;BMP180;3260;52.438;13.502;2022-10-16T04:00:23;100614.00;;;15.90
6454;BMP180;3260;52.438;13.502;2022-10-16T04:02:51;100622.00;;;15.80
6454;BMP180;3260;52.438;13.502;2022-10-16T04:05:19;100624.00;;;15.50
6454;BMP180;3260;52.438;13.502;2022-10-16T04:07:47;100625.00;;;15.80
6454;BMP180;3260;52.438;13.502;2022-10-16T04:10:15;100638.00;;;15.80
6454;BMP180;3260;52.438;13.502;2022-10-16T04:12:43;100635.00;;;15.90
6454;BMP180;3260;52.438;13.502;2022-10-16T04:15:11;100637.00;;;15.70
6454;BMP180;3260;52.438;13.502;2022-10-16T04:17:41;100632.00;;;15.60
6454;BMP180;3260;52.438;13.502;2022-10-16T04:20:09;100634.00;;;15.80
6454;BMP180;3260;52.438;13.502;2022-10-16T04:22:37;100638.00;;;15.60
6454;BMP180;3260;52.438;13.502;2022-10-16T04:25:06;100642.00;;;15.70
6454;BMP180;3260;52.438;13.502;2022-10-16T04:27:34;100634.00;;;15.70
6454;BMP180;3260;52.438;13.502;2022-10-16T04:30:03;100634.00;;;15.70
6454;BMP180;3260;52.438;13.502;2022-10-16T04:32:31;100643.00;;;15.70
6454;BMP180;3260;52.438;13.502;2022-10-16T04:35:01;100622.00;;;15.90
6454;BMP180;3260;52.438;13.502;2022-10-16T04:37:29;100629.00;;;16.00
6454;BMP180;3260;52.438;13.502;2022-10-16T04:39:57;100620.00;;;16.00
6454;BMP180;3260;52.438;13.502;2022-10-16T04:42:25;100603.00;;;16.40
6454;BMP180;3260;52.438;13.502;2022-10-16T04:44:53;100608.00;;;16.30
6454;BMP180;3260;52.438;13.502;2022-10-16T04:47:21;100612.00;;;16.20
6454;BMP180;3260;52.438;13.502;2022-10-16T04:49:50;100609.00;;;16.20
6454;BMP180;3260;52.438;13.502;2022-10-16T04:52:19;100603.00;;;16.10
6454;BMP180;3260;52.438;13.502;2022-10-16T04:54:48;100612.00;;;16.30
6454;BMP180;3260;52.438;13.502;2022-10-16T04:57:17;100628.00;;;16.40
6454;BMP180;3260;52.438;13.502;2022-10-16T04:59:45;100625.00;;;16.00
6454;BMP180;3260;52.438;13.502;2022-10-16T05:02:13;100620.00;;;16.30
6454;BMP180;3260;52.438;13.502;2022-10-16T05:04:41;100616.00;;;16.20
6454;BMP180;3260;52.438;13.502;2022-10-16T05:07:09;100633.00;;;16.00
6454;BMP180;3260;52.438;13.502;2022-10-16T05:09:38;100639.00;;;16.20
6454;BMP180;3260;52.438;13.502;2022-10-16T05:12:06;100650.00;;;16.00
6454;BMP180;3260;52.438;13.502;2022-10-16T05:14:35;100660.00;;;15.70
6454;BMP180;3260;52.438;13.502;2022-10-16T05:17:03;100660.00;;;15.90
6454;BMP180;3260;52.438;13.502;2022-10-16T05:19:31;100666.00;;;15.80
6454;BMP180;3260;52.438;13.502;2022-10-16T05:21:59;100660.00;;;16.00
6454;BMP180;3260;52.438;13.502;2022-10-16T05:24:27;100666.00;;;16.00
6454;BMP180;3260;52.438;13.502;2022-10-16T05:26:57;100659.00;;;16.00
6454;BMP180;3260;52.438;13.502;2022-10-16T05:29:25;100665.00;;;15.90
6454;BMP180;3260;52.438;13.502;2022-10-16T05:31:53;100668.00;;;16.00
6454;BMP180;3260;52.438;13.502;2022-10-16T05:34:21;100656.00;;;15.40
6454;BMP180;3260;52.438;13.502;2022-10-16T05:36:49;100654.00;;;15.30
6454;BMP180;3260;52.438;13.502;2022-10-16T05:39:17;100643.00;;;15.40
6454;BMP180;3260;52.438;13.502;2022-10-16T05:41:46;100654.00;;;15.60
6454;BMP180;3260;52.438;13.502;2022-10-16T05:44:15;100652.00;;;15.90
6454;BMP180;3260;52.438;13.502;2022-10-16T05:46:45;100659.00;;;15.50
6454;BMP180;3260;52.438;13.502;2022-10-16T05:49:14;100659.00;;;16.10
6454;BMP180;3260;52.438;13.502;2022-10-16T05:51:42;100669.00;;;16.10
6454;BMP180;3260;52.438;13.502;2022-10-16T05:54:10;100675.00;;;16.20
6454;BMP180;3260;52.438;13.502;2022-10-16T05:56:38;100684.00;;;16.10
6454;BMP180;3260;52.438;13.502;2022-10-16T05:59:06;100671.00;;;16.00
6454;BMP180;3260;52.438;13.502;2022-10-16T06:01:35;100669.00;;;15.80
6454;BMP180;3260;52.438;13.502;2022-10-16T06:04:03;100667.00;;;15.80
6454;BMP180;3260;52.438;13.502;2022-10-16T06:06:31;100677.00;;;15.80
6454;BMP180;3260;52.438;13.502;2022-10-16T06:08:59;100673.00;;;15.50
6454;BMP180;3260;52.438;13.502;2022-10-16T06:11:30;100669.00;;;15.50
6454;BMP180;3260;52.438;13.502;2022-10-16T06:14:01;100663.00;;;15.50
6454;BMP180;3260;52.438;13.502;2022-10-16T06:16:37;100679.00;;;15.40
6454;BMP180;3260;52.438;13.502;2022-10-16T06:19:05;100687.00;;;15.90
6454;BMP180;3260;52.438;13.502;2022-10-16T06:21:35;100687.00;;;16.00
6454;BMP180;3260;52.438;13.502;2022-10-16T06:24:03;100676.00;;;15.80
6454;BMP180;3260;52.438;13.502;2022-10-16T06:26:31;100692.00;;;16.10
6454;BMP180;3260;52.438;13.502;2022-10-16T06:29:00;100689.00;;;16.30
6454;BMP180;3260;52.438;13.502;2022-10-16T06:31:28;100668.00;;;16.60
6454;BMP180;3260;52.438;13.502;2022-10-16T06:34:00;100680.00;;;16.50
6454;BMP180;3260;52.438;13.502;2022-10-16T06:36:28;100693.00;;;16.80
6454;BMP180;3260;52.438;13.502;2022-10-16T06:38:56;100694.00;;;16.90
6454;BMP180;3260;52.438;13.502;2022-10-16T06:41:24;100707.00;;;16.60
6454;BMP180;3260;52.438;13.502;2022-10-16T06:43:52;100702.00;;;17.00
6454;BMP180;3260;52.438;13.502;2022-10-16T06:46:24;100718.00;;;17.10
6454;BMP180;3260;52.438;13.502;2022-10-16T06:48:53;100731.00;;;16.50
6454;BMP180;3260;52.438;13.502;2022-10-16T06:51:24;100736.00;;;16.60
6454;BMP180;3260;52.438;13.502;2022-10-16T06:53:55;100722.00;;;17.40
6454;BMP180;3260;52.438;13.502;2022-10-16T06:56:31;100711.00;;;17.10
6454;BMP180;3260;52.438;13.502;2022-10-16T06:59:00;100736.00;;;17.60
6454;BMP180;3260;52.438;13.502;2022-10-16T07:01:28;100733.00;;;17.30
6454;BMP180;3260;52.438;13.502;2022-10-16T07:03:56;100731.00;;;17.10
6454;BMP180;3260;52.438;13.502;2022-10-16T07:06:27;100731.00;;;16.90
6454;BMP180;3260;52.438;13.502;2022-10-16T07:08:55;100734.00;;;16.90
6454;BMP180;3260;52.438;13.502;2022-10-16T07:11:23;100735.00;;;17.20
6454;BMP180;3260;52.438;13.502;2022-10-16T07:13:51;100747.00;;;17.60
6454;BMP180;3260;52.438;13.502;2022-10-16T07:16:25;100756.00;;;18.20
6454;BMP180;3260;52.438;13.502;2022-10-16T07:18:54;100766.00;;;18.50
6454;BMP180;3260;52.438;13.502;2022-10-16T07:21:29;100773.00;;;19.00
6454;BMP180;3260;52.438;13.502;2022-10-16T07:23:59;100770.00;;;18.90
6454;BMP180;3260;52.438;13.502;2022-10-16T07:26:32;100753.00;;;18.50
6454;BMP180;3260;52.438;13.502;2022-10-16T07:29:01;100743.00;;;18.70
6454;BMP180;3260;52.438;13.502;2022-10-16T07:31:30;100767.00;;;18.90
6454;BMP180;3260;52.438;13.502;2022-10-16T07:34:00;100768.00;;;19.00
6454;BMP180;3260;52.438;13.502;2022-10-16T07:36:29;100778.00;;;19.50
6454;BMP180;3260;52.438;13.502;2022-10-16T07:38:57;100773.00;;;19.70
6454;BMP180;3260;52.438;13.502;2022-10-16T07:41:27;100759.00;;;19.70
6454;BMP180;3260;52.438;13.502;2022-10-16T07:43:56;100769.00;;;19.40
6454;BMP180;3260;52.438;13.502;2022-10-16T07:46:27;100784.00;;;19.20
6454;BMP180;3260;52.438;13.502;2022-10-16T07:48:55;100768.00;;;18.90
6454;BMP180;3260;52.438;13.502;2022-10-16T07:51:25;100776.00;;;18.90
6454;BMP180;3260;52.438;13.502;2022-10-16T07:53:55;100779.00;;;19.10
6454;BMP180;3260;52.438;13.502;2022-10-16T07:56:23;100770.00;;;18.70
6454;BMP180;3260;52.438;13.502;2022-10-16T07:58:51;100774.00;;;18.40
6454;BMP180;3260;52.438;13.502;2022-10-16T08:01:20;100776.00;;;18.70
6454;BMP180;3260;52.438;13.502;2022-10-16T08:03:50;100768.00;;;18.50
6454;BMP180;3260;52.438;13.502;2022-10-16T08:06:21;100778.00;;;18.90
6454;BMP180;3260;52.438;13.502;2022-10-16T08:08:55;100787.00;;;19.20
6454;BMP180;3260;52.438;13.502;2022-10-16T08:11:23;100788.00;;;19.20
6454;BMP180;3260;52.438;13.502;2022-10-16T08:13:51;100787.00;;;19.50
6454;BMP180;3260;52.438;13.502;2022-10-16T08:16:20;100803.00;;;19.30
6454;BMP180;3260;52.438;13.502;2022-10-16T08:18:49;100803.00;;;19.10
6454;BMP180;3260;52.438;13.502;2022-10-16T08:21:22;100810.00;;;19.20
6454;BMP180;3260;52.438;13.502;2022-10-16T08:23:53;100816.00;;;19.20
6454;BMP180;3260;52.438;13.502;2022-10-16T08:26:27;100809.00;;;19.50
6454;BMP180;3260;52.438;13.502;2022-10-16T08:28:55;100799.00;;;19.40
6454;BMP180;3260;52.438;13.502;2022-10-16T08:31:23;100805.00;;;19.80
6454;BMP180;3260;52.438;13.502;2022-10-16T08:33:52;100820.00;;;20.20
6454;BMP180;3260;52.438;13.502;2022-10-16T08:36:20;100818.00;;;19.90
6454;BMP180;3260;52.438;13.502;2022-10-16T08:38:50;100787.00;;;20.00
6454;BMP180;3260;52.438;13.502;2022-10-16T08:41:57;100823.00;;;20.40
6454;BMP180;3260;52.438;13.502;2022-10-16T08:45:01;100826.00;;;20.30
6454;BMP180;3260;52.438;13.502;2022-10-16T08:47:44;100806.00;;;20.00
6454;BMP180;3260;52.438;13.502;2022-10-16T08:50:18;100816.00;;;20.00
6454;BMP180;3260;52.438;13.502;2022-10-16T08:52:49;100816.00;;;19.70
6454;BMP180;3260;52.438;13.502;2022-10-16T08:55:31;100812.00;;;19.40
6454;BMP180;3260;52.438;13.502;2022-10-16T08:58:12;100829.00;;;19.50
6454;BMP180;3260;52.438;13.502;2022-10-16T09:00:43;100827.00;;;19.40
6454;BMP180;3260;52.438;13.502;2022-10-16T09:03:24;100830.00;;;19.20
6454;BMP180;3260;52.438;13.502;2022-10-16T09:06:16;100828.00;;;19.60
6454;BMP180;3260;52.438;13.502;2022-10-16T09:09:04;100833.00;;;19.60
6454;BMP180;3260;52.438;13.502;2022-10-16T09:11:46;100843.00;;;19.50
6454;BMP180;3260;52.438;13.502;2022-10-16T09:14:35;100846.00;;;19.80
6454;BMP180;3260;52.438;13.502;2022-10-16T09:17:28;100858.00;;;19.80
6454;BMP180;3260;52.438;13.502;2022-10-16T09:20:19;100848.00;;;20.10
6454;BMP180;3260;52.438;13.502;2022-10-16T09:22:55;100867.00;;;20.60
6454;BMP180;3260;52.438;13.502;2022-10-16T09:25:28;100866.00;;;20.90
6454;BMP180;3260;52.438;13.502;2022-10-16T09:27:56;100861.00;;;20.40
6454;BMP180;3260;52.438;13.502;2022-10-16T09:30:28;100858.00;;;20.60
6454;BMP180;3260;52.438;13.502;2022-10-16T09:32:59;100857.00;;;20.20
6454;BMP180;3260;52.438;13.502;2022-10-16T09:35:35;100852.00;;;20.00
6454;BMP180;3260;52.438;13.502;2022-10-16T09:38:05;100850.00;;;20.50
6454;BMP180;3260;52.438;13.502;2022-10-16T09:40:35;100849.00;;;20.70
6454;BMP180;3260;52.438;13.502;2022-10-16T09:43:20;100873.00;;;20.40
6454;BMP180;3260;52.438;13.502;2022-10-16T09:45:59;100875.00;;;20.00
6454;BMP180;3260;52.438;13.502;2022-10-16T09:48:36;100870.00;;;20.30
6454;BMP180;3260;52.438;13.502;2022-10-16T09:51:17;100896.00;;;20.80
6454;BMP180;3260;52.438;13.502;2022-10-16T09:53:47;100873.00;;;21.00
6454;BMP180;3260;52.438;13.502;2022-10-16T09:56:23;100872.00;;;21.00
6454;BMP180;3260;52.438;13.502;2022-10-16T09:58:54;100892.00;;;20.70
6454;BMP180;3260;52.438;13.502;2022-10-16T10:01:30;100885.00;;;20.60
6454;BMP180;3260;52.438;13.502;2022-10-16T10:03:58;100891.00;;;20.50
6454;BMP180;3260;52.438;13.502;2022-10-16T10:06:31;100898.00;;;20.70
6454;BMP180;3260;52.438;13.502;2022-10-16T10:09:06;100897.00;;;21.10
6454;BMP180;3260;52.438;13.502;2022-10-16T10:11:53;100904.00;;;21.40
6454;BMP180;3260;52.438;13.502;2022-10-16T10:14:26;100910.00;;;21.70
6454;BMP180;3260;52.438;13.502;2022-10-16T10:17:22;100919.00;;;21.70
6454;BMP180;3260;52.438;13.502;2022-10-16T10:19:53;100916.00;;;21.90
6454;BMP180;3260;52.438;13.502;2022-10-16T10:22:29;100908.00;;;21.60
6454;BMP180;3260;52.438;13.502;2022-10-16T10:25:15;100906.00;;;21.40
6454;BMP180;3260;52.438;13.502;2022-10-16T10:28:24;100912.00;;;21.70
6454;BMP180;3260;52.438;13.502;2022-10-16T10:31:01;100914.00;;;21.50
6454;BMP180;3260;52.438;13.502;2022-10-16T10:33:50;100911.00;;;21.60
6454;BMP180;3260;52.438;13.502;2022-10-16T10:36:30;100922.00;;;21.70
6454;BMP180;3260;52.438;13.502;2022-10-16T10:39:04;100916.00;;;21.80
6454;BMP180;3260;52.438;13.502;2022-10-16T10:42:06;100922.00;;;22.10
6454;BMP180;3260;52.438;13.502;2022-10-16T10:45:00;100931.00;;;21.40
6454;BMP180;3260;52.438;13.502;2022-10-16T10:47:42;100918.00;;;21.50
6454;BMP180;3260;52.438;13.502;2022-10-16T10:50:22;100932.00;;;21.90
6454;BMP180;3260;52.438;13.502;2022-10-16T10:53:01;100937.00;;;22.10
6454;BMP180;3260;52.438;13.502;2022-10-16T10:55:40;100916.00;;;22.10
6454;BMP180;3260;52.438;13.502;2022-10-16T10:58:44;100929.00;;;22.50
6454;BMP180;3260;52.438;13.502;2022-10-16T11:01:21;100932.00;;;23.20
6454;BMP180;3260;52.438;13.502;2022-10-16T11:07:18;100933.00;;;22.50
6454;BMP180;3260;52.438;13.502;2022-10-16T11:09:52;100911.00;;;22.60
6454;BMP180;3260;52.438;13.502;2022-10-16T11:12:26;100938.00;;;21.90
6454;BMP180;3260;52.438;13.502;2022-10-16T11:15:04;100941.00;;;22.90
6454;BMP180;3260;52.438;13.502;2022-10-16T11:17:40;100938.00;;;24.80
6454;BMP180;3260;52.438;13.502;2022-10-16T11:20:18;100931.00;;;26.10
6454;BMP180;3260;52.438;13.502;2022-10-16T11:22:54;100947.00;;;26.20
6454;BMP180;3260;52.438;13.502;2022-10-16T11:25:27;100941.00;;;25.60
6454;BMP180;3260;52.438;13.502;2022-10-16T11:28:02;100955.00;;;26.00
6454;BMP180;3260;52.438;13.502;2022-10-16T11:30:40;100938.00;;;25.70
6454;BMP180;3260;52.438;13.502;2022-10-16T11:33:26;100947.00;;;25.40
6454;BMP180;3260;52.438;13.502;2022-10-16T11:36:04;100949.00;;;24.30
6454;BMP180;3260;52.438;13.502;2022-10-16T11:38:44;100953.00;;;23.50
6454;BMP180;3260;52.438;13.502;2022-10-16T11:41:24;100933.00;;;23.50
6454;BMP180;3260;52.438;13.502;2022-10-16T11:44:32;100953.00;;;23.60
6454;BMP180;3260;52.438;13.502;2022-10-16T11:47:15;100940.00;;;23.80
6454;BMP180;3260;52.438;13.502;2022-10-16T11:50:23;100943.00;;;24.00
6454;BMP180;3260;52.438;13.502;2022-10-16T11:52:58;100948.00;;;25.20
6454;BMP180;3260;52.438;13.502;2022-10-16T11:55:35;100956.00;;;27.50
6454;BMP180;3260;52.438;13.502;2022-10-16T11:58:22;100957.00;;;28.40
6454;BMP180;3260;52.438;13.502;2022-10-16T12:01:01;100956.00;;;30.50
6454;BMP180;3260;52.438;13.502;2022-10-16T12:03:40;100969.00;;;31.10
6454;BMP180;3260;52.438;13.502;2022-10-16T12:06:27;100975.00;;;31.10
6454;BMP180;3260;52.438;13.502;2022-10-16T12:09:00;100971.00;;;30.40
6454;BMP180;3260;52.438;13.502;2022-10-16T12:11:37;100963.00;;;29.20
6454;BMP180;3260;52.438;13.502;2022-10-16T12:14:38;100983.00;;;29.30
6454;BMP180;3260;52.438;13.502;2022-10-16T12:17:34;100968.00;;;27.30
6454;BMP180;3260;52.438;13.502;2022-10-16T12:20:25;100984.00;;;24.40
6454;BMP180;3260;52.438;13.502;2022-10-16T12:22:57;100985.00;;;23.80
6454;BMP180;3260;52.438;13.502;2022-10-16T12:25:29;100981.00;;;25.10
6454;BMP180;3260;52.438;13.502;2022-10-16T12:28:02;100985.00;;;26.60
6454;BMP180;3260;52.438;13.502;2022-10-16T12:30:34;100981.00;;;27.90
6454;BMP180;3260;52.438;13.502;2022-10-16T12:33:05;100990.00;;;28.30
6454;BMP180;3260;52.438;13.502;2022-10-16T12:35:43;100984.00;;;29.70
6454;BMP180;3260;52.438;13.502;2022-10-16T12:38:18;100990.00;;;29.60
6454;BMP180;3260;52.438;13.502;2022-10-16T12:40:56;100998.00;;;30.80
6454;BMP180;3260;52.438;13.502;2022-10-16T12:43:39;101007.00;;;31.20
6454;BMP180;3260;52.438;13.502;2022-10-16T12:46:34;101013.00;;;31.00
6454;BMP180;3260;52.438;13.502;2022-10-16T12:49:22;101003.00;;;30.50
6454;BMP180;3260;52.438;13.502;2022-10-16T12:51:51;101013.00;;;30.70
6454;BMP180;3260;52.438;13.502;2022-10-16T12:54:27;101002.00;;;29.10
6454;BMP180;3260;52.438;13.502;2022-10-16T12:57:27;101001.00;;;31.40
6454;BMP180;3260;52.438;13.502;2022-10-16T13:00:16;101024.00;;;30.80
6454;BMP180;3260;52.438;13.502;2022-10-16T13:03:38;101022.00;;;31.50
6454;BMP180;3260;52.438;13.502;2022-10-16T13:06:27;101014.00;;;28.50
6454;BMP180;3260;52.438;13.502;2022-10-16T13:09:14;101016.00;;;29.90
6454;BMP180;3260;52.438;13.502;2022-10-16T13:12:13;101024.00;;;27.90
6454;BMP180;3260;52.438;13.502;2022-10-16T13:15:16;101026.00;;;27.70
6454;BMP180;3260;52.438;13.502;2022-10-16T13:17:58;101033.00;;;27.20
6454;BMP180;3260;52.438;13.502;2022-10-16T13:20:36;101040.00;;;25.80
6454;BMP180;3260;52.438;13.502;2022-10-16T13:23:15;101037.00;;;25.90
6454;BMP180;3260;52.438;13.502;2022-10-16T13:26:04;101043.00;;;25.50
6454;BMP180;3260;52.438;13.502;2022-10-16T13:28:39;101039.00;;;25.30
6454;BMP180;3260;52.438;13.502;2022-10-16T13:31:18;101043.00;;;25.70
6454;BMP180;3260;52.438;13.502;2022-10-16T13:33:51;101050.00;;;25.00
6454;BMP180;3260;52.438;13.502;2022-10-16T13:36:23;101046.00;;;24.20
6454;BMP180;3260;52.438;13.502;2022-10-16T13:39:10;101043.00;;;23.90
6454;BMP180;3260;52.438;13.502;2022-10-16T13:41:38;101052.00;;;23.70
6454;BMP180;3260;52.438;13.502;2022-10-16T13:44:14;101049.00;;;23.60
6454;BMP180;3260;52.438;13.502;2022-10-16T13:46:44;101057.00;;;23.40
6454;BMP180;3260;52.438;13.502;2022-10-16T13:49:15;101042.00;;;24.60
6454;BMP180;3260;52.438;13.502;2022-10-16T13:51:55;101057.00;;;25.90
6454;BMP180;3260;52.438;13.502;2022-10-16T13:54:24;101054.00;;;24.60
6454;BMP180;3260;52.438;13.502;2022-10-16T13:56:53;101050.00;;;24.90
6454;BMP180;3260;52.438;13.502;2022-10-16T13:59:36;101057.00;;;24.80
6454;BMP180;3260;52.438;13.502;2022-10-16T14:02:20;101067.00;;;27.10
6454;BMP180;3260;52.438;13.502;2022-10-16T14:04:49;101055.00;;;27.80
6454;BMP180;3260;52.438;13.502;2022-10-16T14:07:24;101071.00;;;31.00
6454;BMP180;3260;52.438;13.502;2022-10-16T14:09:54;101065.00;;;29.90
6454;BMP180;3260;52.438;13.502;2022-10-16T14:12:23;101071.00;;;29.50
6454;BMP180;3260;52.438;13.502;2022-10-16T14:14:57;101076.00;;;27.40
6454;BMP180;3260;52.438;13.502;2022-10-16T14:17:29;101064.00;;;27.60
6454;BMP180;3260;52.438;13.502;2022-10-16T14:20:00;101078.00;;;27.00
6454;BMP180;3260;52.438;13.502;2022-10-16T14:22:35;101080.00;;;28.20
6454;BMP180;3260;52.438;13.502;2022-10-16T14:25:24;101071.00;;;30.00
6454;BMP180;3260;52.438;13.502;2022-10-16T14:28:00;101089.00;;;32.20
6454;BMP180;3260;52.438;13.502;2022-10-16T14:30:35;101091.00;;;30.10
6454;BMP180;3260;52.438;13.502;2022-10-16T14:33:21;101091.00;;;29.80
6454;BMP180;3260;52.438;13.502;2022-10-16T14:36:03;101089.00;;;29.20
6454;BMP180;3260;52.438;13.502;2022-10-16T14:38:33;101099.00;;;30.00
6454;BMP180;3260;52.438;13.502;2022-10-16T14:41:03;101094.00;;;32.20
6454;BMP180;3260;52.438;13.502;2022-10-16T14:43:34;101093.00;;;33.70
6454;BMP180;3260;52.438;13.502;2022-10-16T14:46:14;101100.00;;;32.40
6454;BMP180;3260;52.438;13.502;2022-10-16T14:48:48;101100.00;;;32.10
6454;BMP180;3260;52.438;13.502;2022-10-16T14:51:17;101110.00;;;33.90
6454;BMP180;3260;52.438;13.502;2022-10-16T14:53:46;101110.00;;;32.00
6454;BMP180;3260;52.438;13.502;2022-10-16T14:56:18;101103.00;;;30.40
6454;BMP180;3260;52.438;13.502;2022-10-16T14:58:47;101111.00;;;31.10
6454;BMP180;3260;52.438;13.502;2022-10-16T15:01:15;101107.00;;;31.40
6454;BMP180;3260;52.438;13.502;2022-10-16T15:03:45;101114.00;;;31.20
6454;BMP180;3260;52.438;13.502;2022-10-16T15:06:15;101095.00;;;30.50
6454;BMP180;3260;52.438;13.502;2022-10-16T15:08:43;101107.00;;;30.70
6454;BMP180;3260;52.438;13.502;2022-10-16T15:11:15;101113.00;;;30.50
6454;BMP180;3260;52.438;13.502;2022-10-16T15:13:43;101117.00;;;28.90
6454;BMP180;3260;52.438;13.502;2022-10-16T15:16:14;101119.00;;;29.90
6454;BMP180;3260;52.438;13.502;2022-10-16T15:18:44;101121.00;;;28.30
6454;BMP180;3260;52.438;13.502;2022-10-16T15:21:23;101127.00;;;28.80
6454;BMP180;3260;52.438;13.502;2022-10-16T15:23:53;101125.00;;;28.30
6454;BMP180;3260;52.438;13.502;2022-10-16T15:26:21;101139.00;;;28.80
6454;BMP180;3260;52.438;13.502;2022-10-16T15:28:49;101142.00;;;29.00
6454;BMP180;3260;52.438;13.502;2022-10-16T15:31:17;101139.00;;;28.30
6454;BMP180;3260;52.438;13.502;2022-10-16T15:33:50;101135.00;;;29.60
6454;BMP180;3260;52.438;13.502;2022-10-16T15:36:27;101143.00;;;28.30
6454;BMP180;3260;52.438;13.502;2022-10-16T15:38:56;101149.00;;;27.30
6454;BMP180;3260;52.438;13.502;2022-10-16T15:41:24;101142.00;;;26.20
6454;BMP180;3260;52.438;13.502;2022-10-16T15:43:52;101152.00;;;25.20
6454;BMP180;3260;52.438;13.502;2022-10-16T15:46:22;101149.00;;;24.70
6454;BMP180;3260;52.438;13.502;2022-10-16T15:48:57;101157.00;;;23.80
6454;BMP180;3260;52.438;13.502;2022-10-16T15:51:26;101154.00;;;23.10
6454;BMP180;3260;52.438;13.502;2022-10-16T15:53:56;101162.00;;;22.20
6454;BMP180;3260;52.438;13.502;2022-10-16T15:56:25;101162.00;;;22.00
6454;BMP180;3260;52.438;13.502;2022-10-16T15:58:55;101161.00;;;21.50
6454;BMP180;3260;52.438;13.502;2022-10-16T16:01:24;101157.00;;;20.80
6454;BMP180;3260;52.438;13.502;2022-10-16T16:03:54;101165.00;;;20.70
6454;BMP180;3260;52.438;13.502;2022-10-16T16:06:23;101168.00;;;20.80
6454;BMP180;3260;52.438;13.502;2022-10-16T16:08:51;101170.00;;;20.50
6454;BMP180;3260;52.438;13.502;2022-10-16T16:11:21;101180.00;;;20.50
6454;BMP180;3260;52.438;13.502;2022-10-16T16:13:50;101180.00;;;19.70
6454;BMP180;3260;52.438;13.502;2022-10-16T16:16:18;101178.00;;;20.40
6454;BMP180;3260;52.438;13.502;2022-10-16T16:18:46;101187.00;;;20.60
6454;BMP180;3260;52.438;13.502;2022-10-16T16:21:17;101190.00;;;20.10
6454;BMP180;3260;52.438;13.502;2022-10-16T16:23:45;101188.00;;;19.60
6454;BMP180;3260;52.438;13.502;2022-10-16T16:26:21;101191.00;;;20.00
6454;BMP180;3260;52.438;13.502;2022-10-16T16:28:50;101199.00;;;19.90
6454;BMP180;3260;52.438;13.502;2022-10-16T16:31:19;101191.00;;;19.80
6454;BMP180;3260;52.438;13.502;2022-10-16T16:33:47;101199.00;;;20.00
6454;BMP180;3260;52.438;13.502;2022-10-16T16:36:19;101202.00;;;19.80
6454;BMP180;3260;52.438;13.502;2022-10-16T16:38:52;101214.00;;;19.70
6454;BMP180;3260;52.438;13.502;2022-10-16T16:41:25;101221.00;;;19.30
6454;BMP180;3260;52.438;13.502;2022-10-16T16:43:54;101207.00;;;19.00
6454;BMP180;3260;52.438;13.502;2022-10-16T16:46:22;101223.00;;;19.40
6454;BMP180;3260;52.438;13.502;2022-10-16T16:48:50;101215.00;;;19.10
6454;BMP180;3260;52.438;13.502;2022-10-16T16:51:22;101229.00;;;18.60
6454;BMP180;3260;52.438;13.502;2022-10-16T16:53:53;101237.00;;;18.70
6454;BMP180;3260;52.438;13.502;2022-10-16T16:56:23;101241.00;;;18.80
6454;BMP180;3260;52.438;13.502;2022-10-16T16:58:54;101219.00;;;18.10
6454;BMP180;3260;52.438;13.502;2022-10-16T17:01:24;101257.00;;;17.40
6454;BMP180;3260;52.438;13.502;2022-10-16T17:03:55;101255.00;;;17.20
6454;BMP180;3260;52.438;13.502;2022-10-16T17:06:28;101263.00;;;17.80
6454;BMP180;3260;52.438;13.502;2022-10-16T17:08:58;101258.00;;;18.20
6454;BMP180;3260;52.438;13.502;2022-10-16T17:11:27;101257.00;;;18.40
6454;BMP180;3260;52.438;13.502;2022-10-16T17:13:58;101262.00;;;18.40
6454;BMP180;3260;52.438;13.502;2022-10-16T17:16:30;101260.00;;;18.30
6454;BMP180;3260;52.438;13.502;2022-10-16T17:19:02;101269.00;;;18.00
6454;BMP180;3260;52.438;13.502;2022-10-16T17:21:34;101279.00;;;17.80
6454;BMP180;3260;52.438;13.502;2022-10-16T17:24:04;101274.00;;;18.10
6454;BMP180;3260;52.438;13.502;2022-10-16T17:26:32;101283.00;;;17.60
6454;BMP180;3260;52.438;13.502;2022-10-16T17:29:04;101286.00;;;17.70
6454;BMP180;3260;52.438;13.502;2022-10-16T17:31:35;101284.00;;;18.00
6454;BMP180;3260;52.438;13.502;2022-10-16T17:34:06;101301.00;;;17.80
6454;BMP180;3260;52.438;13.502;2022-10-16T17:36:39;101284.00;;;17.70
6454;BMP180;3260;52.438;13.502;2022-10-16T17:39:13;101307.00;;;17.60
6454;BMP180;3260;52.438;13.502;2022-10-16T17:41:43;101312.00;;;17.80
6454;BMP180;3260;52.438;13.502;2022-10-16T17:44:12;101321.00;;;17.70
6454;BMP180;3260;52.438;13.502;2022-10-16T17:46:46;101316.00;;;17.30
6454;BMP180;3260;52.438;13.502;2022-10-16T17:49:15;101319.00;;;17.30
6454;BMP180;3260;52.438;13.502;2022-10-16T17:51:45;101306.00;;;17.40
6454;BMP180;3260;52.438;13.502;2022-10-16T17:54:13;101316.00;;;16.90
6454;BMP180;3260;52.438;13.502;2022-10-16T17:56:42;101321.00;;;17.20
6454;BMP180;3260;52.438;13.502;2022-10-16T17:59:11;101319.00;;;17.30
6454;BMP180;3260;52.438;13.502;2022-10-16T18:01:40;101306.00;;;17.10
6454;BMP180;3260;52.438;13.502;2022-10-16T18:04:15;101324.00;;;17.10
6454;BMP180;3260;52.438;13.502;2022-10-16T18:06:45;101316.00;;;17.10
6454;BMP180;3260;52.438;13.502;2022-10-16T18:09:16;101320.00;;;17.00
6454;BMP180;3260;52.438;13.502;2022-10-16T18:11:45;101316.00;;;16.80
6454;BMP180;3260;52.438;13.502;2022-10-16T18:14:16;101317.00;;;16.80
6454;BMP180;3260;52.438;13.502;2022-10-16T18:16:45;101325.00;;;16.70
6454;BMP180;3260;52.438;13.502;2022-10-16T18:19:13;101322.00;;;16.70
6454;BMP180;3260;52.438;13.502;2022-10-16T18:21:41;101336.00;;;16.10
6454;BMP180;3260;52.438;13.502;2022-10-16T18:24:11;101325.00;;;16.70
6454;BMP180;3260;52.438;13.502;2022-10-16T18:26:39;101338.00;;;16.70
6454;BMP180;3260;52.438;13.502;2022-10-16T18:29:09;101345.00;;;16.60
6454;BMP180;3260;52.438;13.502;2022-10-16T18:31:37;101345.00;;;16.70
6454;BMP180;3260;52.438;13.502;2022-10-16T18:34:09;101337.00;;;16.40
6454;BMP180;3260;52.438;13.502;2022-10-16T18:36:37;101316.00;;;16.40
6454;BMP180;3260;52.438;13.502;2022-10-16T18:39:07;101349.00;;;16.50
6454;BMP180;3260;52.438;13.502;2022-10-16T18:41:39;101342.00;;;16.40
6454;BMP180;3260;52.438;13.502;2022-10-16T18:44:08;101368.00;;;16.20
6454;BMP180;3260;52.438;13.502;2022-10-16T18:46:37;101368.00;;;16.40
6454;BMP180;3260;52.438;13.502;2022-10-16T18:49:05;101371.00;;;16.40